KBMT/BMT METAR and TAF weather

Enter ICAO airport designator
Station Type Date Time Source
KBMT METAR 2019/04/25 21:55 UTC NOAA

KBMT 252155Z AUTO 32012KT 10SM SCT050 SCT065 27/15 A2983 RMK AO2 T02690145


Station Type Date Time Source
KBMT Decoded METAR 2019/04/25 21:55 UTC NOAA

Station name not available
Apr 25, 2019 - 05:55 PM EDT / 2019.04.25 2155 UTC
Wind: from the NW (320 degrees) at 14 MPH (12 KT):0
Visibility: 10 mile(s):0
Sky conditions: partly cloudy
Temperature: 80.4 F (26.9 C)
Dew Point: 58.1 F (14.5 C)
Relative Humidity: 46%
Pressure (altimeter): 29.83 in. Hg (1010 hPa)
ob: KBMT 252155Z AUTO 32012KT 10SM SCT050 SCT065 27/15 A2983 RMK AO2 T02690145
cycle: 22

Station Type Date Time Source
KBMT TAF UTC NOAA

Error!

Example: see airport list